createdAt,value
2018-04-17T00:00:17.251Z,99.90
2018-04-17T00:02:46.545Z,99.90
2018-04-17T00:05:14.882Z,99.90
2018-04-17T00:07:43.272Z,99.90
2018-04-17T00:10:11.690Z,99.90
2018-04-17T00:12:40.097Z,99.90
2018-04-17T00:15:09.221Z,99.90
2018-04-17T00:17:37.637Z,99.90
2018-04-17T00:20:05.994Z,99.90
2018-04-17T00:22:34.373Z,99.90
2018-04-17T00:25:03.106Z,99.90
2018-04-17T00:27:31.483Z,99.90
2018-04-17T00:29:59.840Z,99.90
2018-04-17T00:32:28.241Z,99.90
2018-04-17T00:34:56.596Z,99.90
2018-04-17T00:37:25.015Z,99.90
2018-04-17T00:39:53.373Z,99.90
2018-04-17T00:42:22.529Z,99.90
2018-04-17T00:44:50.932Z,99.90
2018-04-17T00:47:19.257Z,99.90
2018-04-17T00:49:47.623Z,99.90
2018-04-17T00:52:16.008Z,99.90
2018-04-17T00:54:44.417Z,99.90
2018-04-17T00:57:12.797Z,99.90
2018-04-17T00:59:41.175Z,99.90
2018-04-17T01:02:09.531Z,99.90
2018-04-17T01:04:37.888Z,99.90
2018-04-17T01:07:07.052Z,99.90
2018-04-17T01:09:35.484Z,99.90
2018-04-17T01:12:03.833Z,99.90
2018-04-17T01:14:33.000Z,99.90
2018-04-17T01:17:01.351Z,99.90
2018-04-17T01:19:29.750Z,99.90
2018-04-17T01:21:58.134Z,99.90
2018-04-17T01:24:26.493Z,99.90
2018-04-17T01:26:55.009Z,99.90
2018-04-17T01:29:23.387Z,99.90
2018-04-17T01:31:51.772Z,99.90
2018-04-17T01:34:20.948Z,99.90
2018-04-17T01:36:49.303Z,99.90
2018-04-17T01:39:17.693Z,99.90
2018-04-17T01:41:46.081Z,99.90
2018-04-17T01:44:14.983Z,99.90
2018-04-17T01:46:43.316Z,99.90
2018-04-17T01:49:11.699Z,99.90
2018-04-17T01:51:40.119Z,99.90
2018-04-17T01:54:08.473Z,99.90
2018-04-17T01:56:36.880Z,99.90
2018-04-17T01:59:05.972Z,99.90
2018-04-17T02:01:34.835Z,99.90
2018-04-17T02:04:03.190Z,99.90
2018-04-17T02:06:31.511Z,99.90
2018-04-17T02:09:00.029Z,99.90
2018-04-17T02:11:28.372Z,99.90
2018-04-17T02:13:57.529Z,99.90
2018-04-17T02:16:26.353Z,99.90
2018-04-17T02:18:54.751Z,99.90
2018-04-17T02:21:23.904Z,99.90
2018-04-17T02:23:53.416Z,99.90
2018-04-17T02:26:21.796Z,99.90
2018-04-17T02:28:50.182Z,99.90
2018-04-17T02:31:18.529Z,99.90
2018-04-17T02:33:46.873Z,99.90
2018-04-17T02:36:15.200Z,99.90
2018-04-17T02:38:43.643Z,99.90
2018-04-17T02:41:12.011Z,99.90
2018-04-17T02:43:40.403Z,99.90
2018-04-17T02:46:08.803Z,99.90
2018-04-17T02:48:37.186Z,99.90
2018-04-17T02:51:06.323Z,99.90
2018-04-17T02:53:35.514Z,99.90
2018-04-17T02:56:04.705Z,99.90
2018-04-17T02:58:33.880Z,99.90
2018-04-17T03:01:02.245Z,99.90
2018-04-17T03:03:31.051Z,99.90
2018-04-17T03:05:59.425Z,99.90
2018-04-17T03:08:27.792Z,99.90
2018-04-17T03:10:56.177Z,99.90
2018-04-17T03:13:24.502Z,99.90
2018-04-17T03:15:52.879Z,99.90
2018-04-17T03:18:21.617Z,99.90
2018-04-17T03:20:50.000Z,99.90
2018-04-17T03:23:18.404Z,99.90
2018-04-17T03:25:47.617Z,99.90
2018-04-17T03:28:15.956Z,99.90
2018-04-17T03:30:44.352Z,99.90
2018-04-17T03:33:13.619Z,99.90
2018-04-17T03:35:42.038Z,99.90
2018-04-17T03:38:11.133Z,99.90
2018-04-17T03:40:40.322Z,99.90
2018-04-17T03:43:09.445Z,99.90
2018-04-17T03:45:37.804Z,99.90
2018-04-17T03:48:06.959Z,99.90
2018-04-17T03:50:35.374Z,99.90
2018-04-17T03:53:04.529Z,99.90
2018-04-17T03:55:32.920Z,99.90
2018-04-17T03:58:01.281Z,99.90
2018-04-17T04:00:30.377Z,99.90
2018-04-17T04:02:59.208Z,99.90
2018-04-17T04:05:28.340Z,99.90
2018-04-17T04:07:56.753Z,99.90
2018-04-17T04:10:25.284Z,99.90
2018-04-17T04:12:53.645Z,99.90
2018-04-17T04:15:22.804Z,99.90
2018-04-17T04:18:03.245Z,99.90
2018-04-17T04:20:43.556Z,99.90
2018-04-17T04:23:24.497Z,99.90
2018-04-17T04:26:04.642Z,99.90
2018-04-17T04:28:33.831Z,99.90
2018-04-17T04:31:02.171Z,99.90
2018-04-17T04:33:30.552Z,99.90
2018-04-17T04:35:58.941Z,99.90
2018-04-17T04:38:27.444Z,99.90
2018-04-17T04:40:55.852Z,99.90
2018-04-17T04:43:24.212Z,99.90
2018-04-17T04:45:53.379Z,99.90
2018-04-17T04:48:21.715Z,99.90
2018-04-17T04:50:50.907Z,99.90
2018-04-17T04:53:19.310Z,99.90
2018-04-17T04:55:47.711Z,99.90
2018-04-17T04:58:16.050Z,99.90
2018-04-17T05:00:45.200Z,99.90
2018-04-17T05:03:13.616Z,99.90
2018-04-17T05:05:42.004Z,99.90
2018-04-17T05:08:11.157Z,99.90
2018-04-17T05:10:39.498Z,99.90
2018-04-17T05:13:07.898Z,99.90
2018-04-17T05:15:36.283Z,99.90
2018-04-17T05:18:04.639Z,99.90
2018-04-17T05:20:33.020Z,99.90
2018-04-17T05:23:01.401Z,99.90
2018-04-17T05:25:29.756Z,99.90
2018-04-17T05:27:58.936Z,99.90
2018-04-17T05:30:28.094Z,99.90
2018-04-17T05:32:56.458Z,99.90
2018-04-17T05:35:24.817Z,99.90
2018-04-17T05:37:53.839Z,99.90
2018-04-17T05:40:22.228Z,99.90
2018-04-17T05:42:51.379Z,99.90
2018-04-17T05:45:19.727Z,99.90
2018-04-17T05:47:48.108Z,99.90
2018-04-17T05:50:16.565Z,99.90
2018-04-17T05:52:45.020Z,99.90
2018-04-17T05:55:13.448Z,99.90
2018-04-17T05:57:42.595Z,99.90
2018-04-17T06:00:11.154Z,99.90
2018-04-17T06:02:39.491Z,99.90
2018-04-17T06:05:07.905Z,99.90
2018-04-17T06:07:36.328Z,99.90
2018-04-17T06:10:04.748Z,99.90
2018-04-17T06:12:33.945Z,99.90
2018-04-17T06:15:03.108Z,99.90
2018-04-17T06:17:31.520Z,99.90
2018-04-17T06:20:00.726Z,99.90
2018-04-17T06:22:29.141Z,99.90
2018-04-17T06:24:57.477Z,99.90
2018-04-17T06:27:26.993Z,99.90
2018-04-17T06:29:55.361Z,99.90
2018-04-17T06:32:24.525Z,99.90
2018-04-17T06:34:53.033Z,99.90
2018-04-17T06:37:22.200Z,99.90
2018-04-17T06:39:50.565Z,99.90
2018-04-17T06:42:19.002Z,99.90
2018-04-17T06:44:47.399Z,99.90
2018-04-17T06:47:15.838Z,99.90
2018-04-17T06:49:45.026Z,99.90
2018-04-17T06:52:14.158Z,99.90
2018-04-17T06:54:42.581Z,99.90
2018-04-17T06:57:10.952Z,99.90
2018-04-17T06:59:39.392Z,99.90
2018-04-17T07:02:07.769Z,99.90
2018-04-17T07:04:36.113Z,99.90
2018-04-17T07:07:05.297Z,99.90
2018-04-17T07:09:34.599Z,99.90
2018-04-17T07:12:03.021Z,99.90
2018-04-17T07:14:31.433Z,99.90
2018-04-17T07:17:00.630Z,99.90
2018-04-17T07:19:28.972Z,99.90
2018-04-17T07:21:57.388Z,99.90
2018-04-17T07:24:25.749Z,99.90
2018-04-17T07:26:54.890Z,99.90
2018-04-17T07:29:23.333Z,99.90
2018-04-17T07:31:51.704Z,99.90
2018-04-17T07:34:20.121Z,99.90
2018-04-17T07:36:48.539Z,99.90
2018-04-17T07:39:16.955Z,99.90
2018-04-17T07:41:45.321Z,99.90
2018-04-17T07:44:13.694Z,99.90
2018-04-17T07:46:42.078Z,99.90
2018-04-17T07:49:12.121Z,99.90
2018-04-17T07:51:40.940Z,99.90
2018-04-17T07:54:10.095Z,99.90
2018-04-17T07:56:38.596Z,99.90
2018-04-17T07:59:07.233Z,99.90
2018-04-17T08:01:36.639Z,99.90
2018-04-17T08:04:05.096Z,99.90
2018-04-17T08:06:33.441Z,99.90
2018-04-17T08:09:01.973Z,99.90
2018-04-17T08:11:30.359Z,99.90
2018-04-17T08:13:58.728Z,99.90
2018-04-17T08:16:27.134Z,99.90
2018-04-17T08:18:55.539Z,99.90
2018-04-17T08:21:24.673Z,99.90
2018-04-17T08:23:53.067Z,99.90
2018-04-17T08:26:22.000Z,99.90
2018-04-17T08:28:50.723Z,99.90
2018-04-17T08:31:19.133Z,99.90
2018-04-17T08:33:47.554Z,99.90
2018-04-17T08:36:16.009Z,99.90
2018-04-17T08:38:44.393Z,99.90
2018-04-17T08:41:12.916Z,99.90
2018-04-17T08:43:41.258Z,99.90
2018-04-17T08:46:09.657Z,99.90
2018-04-17T08:48:38.835Z,99.90
2018-04-17T08:51:07.739Z,99.90
2018-04-17T08:53:36.144Z,99.90
2018-04-17T08:56:04.484Z,99.90
2018-04-17T08:58:32.946Z,99.90
2018-04-17T09:01:01.344Z,99.90
2018-04-17T09:03:30.492Z,99.90
2018-04-17T09:05:58.889Z,99.90
2018-04-17T09:08:27.679Z,99.90
2018-04-17T09:10:56.239Z,99.90
2018-04-17T09:13:24.580Z,99.90
2018-04-17T09:15:53.036Z,99.90
2018-04-17T09:18:21.433Z,99.90
2018-04-17T09:20:50.534Z,99.90
2018-04-17T09:23:19.748Z,99.90
2018-04-17T09:25:48.241Z,99.90
2018-04-17T09:28:16.656Z,99.90
2018-04-17T09:30:45.231Z,99.90
2018-04-17T09:33:13.704Z,99.90
2018-04-17T09:35:42.113Z,99.90
2018-04-17T09:38:10.541Z,99.90
2018-04-17T09:40:38.941Z,99.90
2018-04-17T09:43:07.711Z,99.90
2018-04-17T09:45:36.053Z,99.70
2018-04-17T09:48:05.223Z,97.50
2018-04-17T09:50:33.924Z,97.40
2018-04-17T09:53:02.342Z,95.00
2018-04-17T09:55:30.780Z,96.90
2018-04-17T09:57:59.941Z,92.60
2018-04-17T10:00:28.728Z,92.60
2018-04-17T10:02:57.083Z,92.30
2018-04-17T10:05:26.411Z,94.60
2018-04-17T10:07:54.829Z,93.70
2018-04-17T10:10:23.996Z,95.50
2018-04-17T10:12:52.421Z,95.50
2018-04-17T10:15:20.812Z,94.70
2018-04-17T10:17:49.144Z,84.00
2018-04-17T10:20:17.536Z,75.80
2018-04-17T10:22:46.689Z,77.20
2018-04-17T10:25:15.344Z,76.90
2018-04-17T10:27:43.756Z,77.60
2018-04-17T10:30:12.147Z,83.90
2018-04-17T10:32:40.679Z,72.50
2018-04-17T10:35:09.073Z,72.80
2018-04-17T10:37:37.469Z,65.80
2018-04-17T10:40:05.888Z,67.20
2018-04-17T10:42:35.469Z,74.70
2018-04-17T10:45:03.909Z,74.70
2018-04-17T10:47:32.608Z,74.70
2018-04-17T10:50:01.099Z,66.40
2018-04-17T10:52:29.485Z,71.30
2018-04-17T10:54:57.861Z,78.70
2018-04-17T10:57:26.270Z,65.00
2018-04-17T10:59:55.412Z,76.30
2018-04-17T11:02:23.814Z,76.00
2018-04-17T11:04:52.242Z,76.10
2018-04-17T11:07:20.922Z,77.90
2018-04-17T11:09:49.359Z,74.70
2018-04-17T11:12:17.757Z,71.30
2018-04-17T11:14:46.096Z,74.90
2018-04-17T11:17:14.596Z,73.30
2018-04-17T11:19:43.001Z,75.20
2018-04-17T11:22:12.141Z,74.60
2018-04-17T11:24:40.579Z,74.60
2018-04-17T11:27:09.744Z,71.50
2018-04-17T11:29:38.141Z,71.40
2018-04-17T11:32:06.598Z,72.20
2018-04-17T11:34:34.992Z,78.00
2018-04-17T11:37:04.527Z,74.00
2018-04-17T11:39:33.647Z,67.30
2018-04-17T11:42:02.053Z,67.10
2018-04-17T11:44:30.452Z,67.30
2018-04-17T11:46:58.850Z,69.40
2018-04-17T11:49:28.171Z,73.00
2018-04-17T11:51:56.584Z,72.90
2018-04-17T11:54:24.986Z,71.20
2018-04-17T11:56:53.371Z,70.70
2018-04-17T11:59:21.770Z,72.80
2018-04-17T12:01:50.951Z,71.10
2018-04-17T12:04:20.143Z,73.70
2018-04-17T12:06:48.658Z,73.60
2018-04-17T12:09:16.988Z,70.00
2018-04-17T12:11:45.389Z,70.70
2018-04-17T12:14:14.546Z,67.90
2018-04-17T12:16:43.072Z,68.00
2018-04-17T12:19:12.232Z,60.20
2018-04-17T12:21:40.568Z,60.30
2018-04-17T12:24:08.987Z,61.80
2018-04-17T12:26:37.386Z,69.50
2018-04-17T12:29:05.940Z,59.40
2018-04-17T12:31:34.300Z,64.70
2018-04-17T12:34:02.692Z,64.60
2018-04-17T12:36:31.103Z,63.20
2018-04-17T12:38:59.497Z,58.30
2018-04-17T12:41:28.782Z,63.70
2018-04-17T12:43:57.168Z,64.30
2018-04-17T12:46:26.268Z,58.80
2018-04-17T12:48:55.453Z,59.50
2018-04-17T12:51:23.975Z,59.50
2018-04-17T12:53:52.299Z,61.50
2018-04-17T12:56:20.688Z,62.40
2018-04-17T12:58:49.166Z,59.40
2018-04-17T13:01:17.560Z,61.80
2018-04-17T13:03:46.723Z,59.70
2018-04-17T13:06:15.271Z,59.60
2018-04-17T13:08:43.653Z,60.70
2018-04-17T13:11:12.019Z,56.70
2018-04-17T13:13:40.437Z,59.80
2018-04-17T13:16:08.812Z,60.30
2018-04-17T13:18:37.244Z,57.20
2018-04-17T13:21:05.636Z,55.50
2018-04-17T13:23:33.995Z,61.10
2018-04-17T13:26:03.122Z,60.30
2018-04-17T13:28:31.487Z,60.30
2018-04-17T13:30:59.944Z,62.60
2018-04-17T13:33:29.088Z,59.50
2018-04-17T13:35:57.477Z,59.50
2018-04-17T13:38:25.906Z,55.80
2018-04-17T13:40:54.263Z,58.00
2018-04-17T13:43:23.407Z,55.00
2018-04-17T13:45:51.816Z,54.80
2018-04-17T13:48:20.249Z,57.50
2018-04-17T13:50:48.641Z,57.10
2018-04-17T13:53:17.051Z,57.90
2018-04-17T13:55:45.408Z,56.40
2018-04-17T13:58:13.844Z,58.70
2018-04-17T14:00:42.973Z,55.40
2018-04-17T14:03:11.384Z,55.50
2018-04-17T14:05:39.891Z,58.60
2018-04-17T14:08:08.992Z,57.50
2018-04-17T14:10:38.150Z,55.80
2018-04-17T14:13:06.512Z,55.80
2018-04-17T14:15:34.925Z,56.70
2018-04-17T14:18:03.256Z,57.90
2018-04-17T14:20:31.618Z,54.50
2018-04-17T14:23:00.028Z,55.30
2018-04-17T14:25:28.456Z,57.00
2018-04-17T14:27:57.557Z,56.70
2018-04-17T14:30:26.857Z,54.70
2018-04-17T14:32:55.253Z,54.70
2018-04-17T14:35:23.648Z,57.20
2018-04-17T14:37:52.040Z,54.20
2018-04-17T14:40:20.408Z,56.10
2018-04-17T14:42:48.774Z,53.90
2018-04-17T14:45:17.159Z,56.00
2018-04-17T14:47:46.230Z,54.00
2018-04-17T14:50:14.564Z,53.70
2018-04-17T14:52:42.971Z,56.60
2018-04-17T14:55:11.368Z,56.40
2018-04-17T14:57:39.835Z,54.70
2018-04-17T15:00:08.397Z,53.10
2018-04-17T15:02:36.788Z,54.40
2018-04-17T15:05:06.040Z,58.90
2018-04-17T15:07:34.450Z,58.80
2018-04-17T15:10:02.897Z,62.00
2018-04-17T15:12:31.238Z,58.50
2018-04-17T15:14:59.609Z,56.50
2018-04-17T15:17:28.056Z,55.20
2018-04-17T15:19:56.461Z,55.10
2018-04-17T15:22:25.011Z,56.20
2018-04-17T15:24:53.429Z,59.20
2018-04-17T15:27:21.764Z,53.70
2018-04-17T15:29:50.125Z,53.80
2018-04-17T15:32:18.525Z,52.30
2018-04-17T15:34:46.876Z,52.50
2018-04-17T15:37:15.293Z,55.80
2018-04-17T15:39:44.452Z,56.20
2018-04-17T15:42:12.824Z,55.50
2018-04-17T15:44:41.209Z,55.70
2018-04-17T15:47:09.602Z,56.50
2018-04-17T15:49:37.967Z,55.30
2018-04-17T15:52:06.441Z,55.40
2018-04-17T15:54:35.896Z,57.50
2018-04-17T15:57:05.053Z,60.30
2018-04-17T15:59:33.520Z,60.10
2018-04-17T16:02:01.937Z,53.70
2018-04-17T16:04:30.303Z,53.10
2018-04-17T16:06:59.504Z,53.60
2018-04-17T16:09:27.869Z,53.50
2018-04-17T16:11:56.280Z,58.20
2018-04-17T16:14:25.438Z,60.20
2018-04-17T16:16:53.796Z,60.20
2018-04-17T16:19:22.625Z,58.00
2018-04-17T16:21:51.077Z,56.90
2018-04-17T16:24:19.448Z,57.50
2018-04-17T16:26:47.870Z,57.10
2018-04-17T16:29:17.021Z,58.00
2018-04-17T16:31:45.392Z,58.00
2018-04-17T16:34:13.803Z,59.20
2018-04-17T16:36:42.226Z,57.50
2018-04-17T16:39:10.662Z,56.10
2018-04-17T16:41:39.049Z,56.20
2018-04-17T16:44:07.453Z,58.30
2018-04-17T16:46:36.741Z,62.60
2018-04-17T16:49:05.833Z,58.70
2018-04-17T16:51:34.967Z,65.20
2018-04-17T16:54:03.399Z,65.20
2018-04-17T16:56:32.649Z,59.80
2018-04-17T16:59:01.045Z,59.70
2018-04-17T17:01:29.461Z,63.10
2018-04-17T17:03:58.660Z,75.30
2018-04-17T17:06:27.816Z,90.20
2018-04-17T17:08:56.223Z,90.20
2018-04-17T17:11:24.562Z,77.70
2018-04-17T17:13:52.905Z,91.50
2018-04-17T17:16:21.259Z,83.10
2018-04-17T17:18:49.661Z,87.40
2018-04-17T17:21:18.053Z,92.70
2018-04-17T17:23:46.436Z,97.30
2018-04-17T17:26:14.833Z,96.60
2018-04-17T17:28:43.742Z,99.90
2018-04-17T17:31:12.135Z,99.90
2018-04-17T17:33:40.548Z,99.90
2018-04-17T17:36:08.925Z,99.90
2018-04-17T17:38:37.375Z,99.90
2018-04-17T17:41:05.791Z,99.90
2018-04-17T17:43:34.176Z,99.90
2018-04-17T17:46:02.558Z,99.90
2018-04-17T17:48:30.888Z,99.90
2018-04-17T17:50:59.311Z,99.90
2018-04-17T17:53:27.705Z,99.90
2018-04-17T17:55:56.126Z,99.90
2018-04-17T17:58:24.454Z,99.90
2018-04-17T18:00:52.838Z,99.90
2018-04-17T18:03:21.196Z,99.90
2018-04-17T18:05:49.596Z,99.90
2018-04-17T18:08:17.984Z,99.90
2018-04-17T18:10:46.395Z,99.90
2018-04-17T18:13:15.621Z,99.90
2018-04-17T18:15:44.020Z,99.90
2018-04-17T18:18:12.420Z,99.90
2018-04-17T18:20:40.840Z,99.90
2018-04-17T18:23:09.944Z,99.90
2018-04-17T18:25:38.419Z,99.90
2018-04-17T18:28:07.575Z,99.90
2018-04-17T18:30:36.367Z,99.90
2018-04-17T18:33:05.553Z,99.90
2018-04-17T18:35:34.005Z,99.90
2018-04-17T18:38:03.613Z,99.90
2018-04-17T18:40:31.993Z,99.90
2018-04-17T18:43:00.524Z,99.90
2018-04-17T18:45:29.455Z,99.90
2018-04-17T18:47:58.217Z,99.90
2018-04-17T18:50:26.590Z,99.90
2018-04-17T18:52:56.160Z,99.90
2018-04-17T18:55:25.383Z,99.90
2018-04-17T18:57:53.797Z,99.90
2018-04-17T19:00:22.164Z,99.90
2018-04-17T19:02:50.579Z,99.90
2018-04-17T19:05:18.980Z,99.90
2018-04-17T19:07:47.342Z,99.90
2018-04-17T19:10:15.757Z,99.90
2018-04-17T19:12:44.925Z,99.90
2018-04-17T19:15:13.364Z,99.90
2018-04-17T19:17:42.180Z,99.90
2018-04-17T19:20:10.586Z,99.90
2018-04-17T19:22:38.980Z,99.90
2018-04-17T19:25:08.169Z,99.90
2018-04-17T19:27:36.512Z,99.90
2018-04-17T19:30:04.943Z,99.90
2018-04-17T19:32:34.110Z,99.90
2018-04-17T19:35:02.545Z,99.90
2018-04-17T19:37:30.964Z,99.90
2018-04-17T19:39:59.332Z,99.90
2018-04-17T19:42:27.749Z,99.90
2018-04-17T19:44:56.934Z,99.90
2018-04-17T19:47:25.393Z,99.90
2018-04-17T19:49:53.732Z,99.90
2018-04-17T19:52:22.229Z,99.90
2018-04-17T19:54:50.588Z,99.90
2018-04-17T19:57:18.948Z,99.90
2018-04-17T19:59:48.104Z,99.90
2018-04-17T20:02:16.960Z,99.90
2018-04-17T20:04:45.291Z,99.90
2018-04-17T20:07:13.717Z,99.90
2018-04-17T20:09:42.138Z,99.90
2018-04-17T20:12:10.510Z,99.90
2018-04-17T20:14:38.969Z,99.90
2018-04-17T20:17:07.747Z,99.90
2018-04-17T20:19:36.945Z,99.90
2018-04-17T20:22:05.343Z,99.90
2018-04-17T20:24:33.765Z,99.90
2018-04-17T20:27:03.487Z,99.90
2018-04-17T20:29:31.857Z,99.90
2018-04-17T20:32:03.641Z,99.90
2018-04-17T20:34:32.033Z,99.90
2018-04-17T20:37:02.226Z,99.90
2018-04-17T20:39:32.434Z,99.90
2018-04-17T20:42:00.888Z,99.90
2018-04-17T20:44:29.921Z,99.90
2018-04-17T20:47:02.422Z,99.90
2018-04-17T20:49:32.416Z,99.90
2018-04-17T20:52:00.849Z,99.90
2018-04-17T20:54:29.427Z,99.90
2018-04-17T20:56:59.375Z,99.90
2018-04-17T20:59:29.775Z,99.90
2018-04-17T21:01:59.448Z,99.90
2018-04-17T21:04:28.693Z,99.90
2018-04-17T21:06:58.858Z,99.90
2018-04-17T21:09:29.032Z,99.90
2018-04-17T21:11:58.707Z,99.90
2018-04-17T21:14:29.652Z,99.90
2018-04-17T21:16:58.205Z,99.90
2018-04-17T21:19:26.647Z,99.90
2018-04-17T21:21:55.816Z,99.90
2018-04-17T21:24:24.249Z,99.90
2018-04-17T21:26:52.644Z,99.90
2018-04-17T21:29:21.161Z,99.90
2018-04-17T21:31:49.564Z,99.90
2018-04-17T21:34:18.697Z,99.90
2018-04-17T21:36:47.204Z,99.90
2018-04-17T21:39:15.609Z,99.90
2018-04-17T21:41:44.769Z,99.90
2018-04-17T21:44:13.161Z,99.90
2018-04-17T21:46:41.555Z,99.90
2018-04-17T21:49:09.945Z,99.90
2018-04-17T21:51:39.408Z,99.90
2018-04-17T21:54:07.800Z,99.90
2018-04-17T21:56:36.197Z,99.90
2018-04-17T21:59:05.430Z,99.90
2018-04-17T22:01:33.829Z,99.90
2018-04-17T22:04:02.219Z,99.90
2018-04-17T22:06:30.620Z,99.90
2018-04-17T22:08:58.986Z,99.90
2018-04-17T22:11:27.433Z,99.90
2018-04-17T22:13:56.085Z,99.90
2018-04-17T22:16:25.239Z,99.90
2018-04-17T22:18:53.581Z,99.90
2018-04-17T22:21:22.160Z,99.90
2018-04-17T22:23:50.592Z,99.90
2018-04-17T22:26:18.993Z,99.90
2018-04-17T22:28:48.181Z,99.90
2018-04-17T22:31:17.360Z,99.90
2018-04-17T22:33:45.753Z,99.90
2018-04-17T22:36:14.194Z,99.90
2018-04-17T22:38:42.607Z,99.90
2018-04-17T22:41:11.017Z,99.90
2018-04-17T22:43:39.440Z,99.90
2018-04-17T22:46:08.765Z,99.90
2018-04-17T22:48:37.124Z,99.90
2018-04-17T22:51:05.517Z,99.90
2018-04-17T22:53:34.086Z,99.90
2018-04-17T22:56:02.514Z,99.90
2018-04-17T22:58:30.920Z,99.90
2018-04-17T23:00:59.317Z,99.90
2018-04-17T23:03:27.657Z,99.90
2018-04-17T23:05:56.063Z,99.90
2018-04-17T23:08:24.463Z,99.90
2018-04-17T23:10:53.365Z,99.90
2018-04-17T23:13:21.761Z,99.90
2018-04-17T23:15:50.925Z,99.90
2018-04-17T23:18:19.344Z,99.90
2018-04-17T23:20:47.838Z,99.90
2018-04-17T23:23:16.173Z,99.90
2018-04-17T23:25:44.536Z,99.90
2018-04-17T23:28:12.895Z,99.90
2018-04-17T23:30:41.237Z,99.90
2018-04-17T23:33:09.654Z,99.90
2018-04-17T23:35:38.002Z,99.90
2018-04-17T23:38:06.492Z,99.90
2018-04-17T23:40:34.911Z,99.90
2018-04-17T23:43:03.323Z,99.90
2018-04-17T23:45:31.749Z,99.90
2018-04-17T23:48:00.119Z,99.90
2018-04-17T23:50:28.477Z,99.90
2018-04-17T23:52:56.892Z,99.90
2018-04-17T23:55:25.357Z,99.90
2018-04-17T23:57:53.749Z,99.90
